Time;durP1;ratioP1;P1;durP2;ratioP2;P2;SDS_P1;SDS_P2;PMS_P1;PMS_P2;Temp;Humidity;BMP_temperature;BMP_pressure;BME280_temperature;BME280_humidity;BME280_pressure;Samples;Min_cycle;Max_cycle;Signal;HPM_P1;HPM_P2
2023/06/22 00:02:21;;;;;;;4.50;3.17;;;;;;;;;;5089837;28;20044;-65
2023/06/22 00:04:47;;;;;;;5.60;3.55;;;;;;;;;;5090302;28;20783;-66
2023/06/22 00:07:12;;;;;;;4.97;4.03;;;;;;;;;;5091055;28;20028;-65
2023/06/22 00:09:37;;;;;;;5.53;4.00;;;;;;;;;;5089780;28;20270;-65
2023/06/22 00:12:03;;;;;;;4.88;3.47;;;;;;;;;;5088619;28;20852;-65
2023/06/22 00:14:28;;;;;;;4.90;3.38;;;;;;;;;;5088043;28;20111;-66
2023/06/22 00:16:57;;;;;;;5.07;3.25;;;;;;;;;;5090337;28;20463;-65
2023/06/22 00:19:22;;;;;;;5.10;3.38;;;;;;;;;;5090472;28;20558;-66
2023/06/22 00:21:52;;;;;;;6.45;3.22;;;;;;;;;;5090312;28;20103;-66
2023/06/22 00:24:18;;;;;;;7.85;3.25;;;;;;;;;;5089957;28;20047;-66
2023/06/22 00:26:43;;;;;;;5.05;3.10;;;;;;;;;;5092054;28;20483;-66
2023/06/22 00:29:08;;;;;;;6.50;3.63;;;;;;;;;;5094125;28;20415;-66
2023/06/22 00:31:34;;;;;;;6.37;3.23;;;;;;;;;;5093648;28;20673;-66
2023/06/22 00:33:59;;;;;;;6.25;3.50;;;;;;;;;;5092956;28;20321;-66
2023/06/22 00:36:24;;;;;;;5.27;3.10;;;;;;;;;;5093479;28;20027;-66
2023/06/22 00:38:50;;;;;;;7.47;3.80;;;;;;;;;;5093247;28;20294;-66
2023/06/22 00:41:16;;;;;;;5.82;3.20;;;;;;;;;;5090332;28;20051;-67
2023/06/22 00:43:42;;;;;;;5.70;3.47;;;;;;;;;;5083419;28;20024;-66
2023/06/22 00:46:07;;;;;;;5.00;3.60;;;;;;;;;;5092743;28;20023;-66
2023/06/22 00:48:33;;;;;;;4.88;3.58;;;;;;;;;;5087376;28;20020;-67
2023/06/22 00:50:58;;;;;;;6.85;4.35;;;;;;;;;;5092881;28;20031;-66
2023/06/22 00:53:23;;;;;;;8.40;4.60;;;;;;;;;;5092756;28;20024;-66
2023/06/22 00:55:51;;;;;;;10.40;3.92;;;;;;;;;;5093180;28;20051;-66
2023/06/22 00:58:16;;;;;;;6.40;3.97;;;;;;;;;;5080276;28;20055;-67
2023/06/22 01:00:42;;;;;;;5.15;4.18;;;;;;;;;;5092942;28;20125;-66
2023/06/22 01:03:11;;;;;;;9.15;4.18;;;;;;;;;;5093231;28;20454;-66
2023/06/22 01:05:36;;;;;;;5.63;3.92;;;;;;;;;;5093274;28;20385;-66
2023/06/22 01:08:31;;;;;;;5.93;4.10;;;;;;;;;;5092952;28;20113;-66
2023/06/22 01:11:05;;;;;;;6.38;4.78;;;;;;;;;;5074997;28;20059;-66
2023/06/22 01:13:30;;;;;;;;;;;;;;;;;;5093179;28;20032;-67
2023/06/22 01:16:01;;;;;;;8.83;4.90;;;;;;;;;;5085572;28;19918;-67
2023/06/22 01:18:28;;;;;;;9.70;4.50;;;;;;;;;;5093116;28;20063;-67
2023/06/22 01:20:55;;;;;;;6.57;4.32;;;;;;;;;;5092634;28;20023;-67
2023/06/22 01:23:20;;;;;;;7.82;5.20;;;;;;;;;;5092701;28;20082;-67
2023/06/22 01:25:56;;;;;;;7.83;5.80;;;;;;;;;;5092429;28;20028;-66
2023/06/22 01:28:31;;;;;;;7.32;5.32;;;;;;;;;;5092688;28;20459;-67
2023/06/22 01:31:05;;;;;;;;;;;;;;;;;;5093782;28;20020;-67
2023/06/22 01:33:34;;;;;;;7.43;5.22;;;;;;;;;;5091991;28;19916;-67
2023/06/22 01:36:00;;;;;;;8.65;6.38;;;;;;;;;;5092151;28;20050;-66
2023/06/22 01:38:26;;;;;;;9.65;6.93;;;;;;;;;;5092054;28;20387;-66
2023/06/22 01:40:52;;;;;;;18.25;7.32;;;;;;;;;;5092046;28;20028;-66
2023/06/22 01:43:17;;;;;;;7.97;6.25;;;;;;;;;;5079455;28;20039;-66
2023/06/22 01:45:43;;;;;;;8.10;6.35;;;;;;;;;;5092368;28;20490;-66
2023/06/22 01:48:08;;;;;;;10.68;7.03;;;;;;;;;;5092513;28;20024;-66
2023/06/22 01:50:33;;;;;;;8.65;7.25;;;;;;;;;;5092265;28;20065;-66
2023/06/22 01:52:59;;;;;;;7.95;6.88;;;;;;;;;;5092478;28;20020;-67
2023/06/22 01:55:24;;;;;;;12.33;8.30;;;;;;;;;;5091690;28;20434;-65
2023/06/22 01:57:49;;;;;;;11.17;8.20;;;;;;;;;;5092541;28;20281;-65
2023/06/22 02:00:19;;;;;;;13.13;8.18;;;;;;;;;;5092558;28;20285;-65
2023/06/22 02:02:58;;;;;;;10.57;8.23;;;;;;;;;;5092293;28;20024;-65
2023/06/22 02:05:25;;;;;;;12.48;7.97;;;;;;;;;;5079273;28;20020;-65
2023/06/22 02:08:00;;;;;;;10.82;8.25;;;;;;;;;;5091549;28;20020;-65
2023/06/22 02:10:26;;;;;;;11.30;8.10;;;;;;;;;;5091687;28;20031;-65
2023/06/22 02:12:52;;;;;;;12.40;9.07;;;;;;;;;;5091982;28;20028;-65
2023/06/22 02:15:18;;;;;;;12.95;9.52;;;;;;;;;;5092378;28;20032;-65
2023/06/22 02:17:44;;;;;;;14.45;10.13;;;;;;;;;;5091865;28;20027;-65
2023/06/22 02:20:13;;;;;;;12.73;10.70;;;;;;;;;;5092403;28;20099;-65
2023/06/22 02:22:38;;;;;;;17.33;10.98;;;;;;;;;;5091775;28;20020;-65
2023/06/22 02:25:03;;;;;;;11.48;10.27;;;;;;;;;;5092315;28;20031;-65
2023/06/22 02:27:29;;;;;;;14.68;11.05;;;;;;;;;;5091222;28;20039;-65
2023/06/22 02:29:54;;;;;;;16.73;11.52;;;;;;;;;;5092354;28;20024;-64
2023/06/22 02:32:19;;;;;;;15.10;11.00;;;;;;;;;;5090040;28;20028;-65
2023/06/22 02:34:47;;;;;;;14.87;11.43;;;;;;;;;;5074011;28;20262;-65
2023/06/22 02:37:14;;;;;;;14.13;12.05;;;;;;;;;;5089766;28;20274;-65
2023/06/22 02:39:40;;;;;;;16.10;12.73;;;;;;;;;;5092256;28;20032;-65
2023/06/22 02:42:05;;;;;;;15.52;11.65;;;;;;;;;;5091982;28;20028;-65
2023/06/22 02:44:31;;;;;;;20.33;13.32;;;;;;;;;;5091062;28;20489;-64
2023/06/22 02:46:56;;;;;;;13.47;12.07;;;;;;;;;;5090716;28;20030;-65
2023/06/22 02:49:21;;;;;;;14.98;12.70;;;;;;;;;;5089834;28;20289;-65
2023/06/22 02:51:47;;;;;;;14.63;11.80;;;;;;;;;;5091226;28;20560;-65
2023/06/22 02:54:12;;;;;;;15.63;11.88;;;;;;;;;;5090957;28;20145;-65
2023/06/22 02:56:40;;;;;;;15.15;12.90;;;;;;;;;;5091439;28;20068;-65
2023/06/22 02:59:05;;;;;;;14.18;12.13;;;;;;;;;;5080589;28;20028;-65
2023/06/22 03:01:37;;;;;;;15.68;12.80;;;;;;;;;;5076000;28;20032;-65
2023/06/22 03:04:02;;;;;;;19.73;14.90;;;;;;;;;;5074616;28;20024;-65
2023/06/22 03:06:28;;;;;;;18.80;14.20;;;;;;;;;;5087635;28;20110;-65
2023/06/22 03:08:57;;;;;;;17.05;13.60;;;;;;;;;;5078125;28;20032;-65
2023/06/22 03:11:22;;;;;;;23.98;15.18;;;;;;;;;;5090970;28;20028;-64
2023/06/22 03:13:48;;;;;;;17.67;14.67;;;;;;;;;;5091424;28;20057;-64
2023/06/22 03:16:13;;;;;;;17.20;15.43;;;;;;;;;;5091289;28;20262;-65
2023/06/22 03:18:38;;;;;;;20.98;16.52;;;;;;;;;;5079593;28;20383;-65
2023/06/22 03:21:03;;;;;;;17.75;15.80;;;;;;;;;;5088793;28;20060;-64
2023/06/22 03:23:29;;;;;;;19.40;14.90;;;;;;;;;;5091379;28;20028;-64
2023/06/22 03:25:55;;;;;;;19.70;16.03;;;;;;;;;;5090990;28;20285;-64
2023/06/22 03:28:21;;;;;;;21.58;15.93;;;;;;;;;;5083223;28;20771;-64
2023/06/22 03:30:46;;;;;;;18.15;16.15;;;;;;;;;;5086989;28;20104;-64
2023/06/22 03:33:11;;;;;;;22.67;16.40;;;;;;;;;;5091282;28;20035;-64
2023/06/22 03:35:37;;;;;;;17.23;15.37;;;;;;;;;;5091125;28;20644;-64
2023/06/22 03:38:02;;;;;;;21.73;16.58;;;;;;;;;;5091101;28;20529;-64
2023/06/22 03:40:28;;;;;;;23.48;17.25;;;;;;;;;;5090935;28;20073;-64
2023/06/22 03:42:53;;;;;;;26.55;16.17;;;;;;;;;;5076726;28;20028;-64
2023/06/22 03:45:18;;;;;;;19.93;16.40;;;;;;;;;;5090794;28;20024;-65
2023/06/22 03:47:43;;;;;;;18.57;16.27;;;;;;;;;;5089608;28;20834;-65
2023/06/22 03:50:09;;;;;;;22.33;18.87;;;;;;;;;;5090045;28;20674;-65
2023/06/22 03:52:34;;;;;;;20.55;18.08;;;;;;;;;;5090889;28;20759;-65
2023/06/22 03:54:59;;;;;;;18.20;15.40;;;;;;;;;;5090051;28;20425;-65
2023/06/22 03:57:24;;;;;;;20.37;17.40;;;;;;;;;;5090162;28;20286;-65
2023/06/22 03:59:50;;;;;;;21.20;16.43;;;;;;;;;;5089583;28;20293;-65
2023/06/22 04:02:15;;;;;;;17.03;15.40;;;;;;;;;;5092696;28;20323;-65
2023/06/22 04:04:40;;;;;;;22.20;16.17;;;;;;;;;;5093639;28;20645;-66
2023/06/22 04:07:05;;;;;;;21.17;17.15;;;;;;;;;;5091476;28;20281;-65
2023/06/22 04:09:31;;;;;;;18.70;16.67;;;;;;;;;;5090687;28;20020;-65
2023/06/22 04:11:56;;;;;;;18.67;15.95;;;;;;;;;;5092724;28;20028;-65
2023/06/22 04:14:21;;;;;;;18.58;15.05;;;;;;;;;;5092943;28;20051;-64
2023/06/22 04:16:46;;;;;;;17.97;16.03;;;;;;;;;;5091544;28;20069;-65
2023/06/22 04:19:16;;;;;;;18.25;15.85;;;;;;;;;;5092257;28;20389;-65
2023/06/22 04:21:41;;;;;;;18.35;16.13;;;;;;;;;;5092786;28;20028;-65
2023/06/22 04:24:07;;;;;;;19.05;17.00;;;;;;;;;;5093923;28;20069;-66
2023/06/22 04:26:36;;;;;;;20.90;17.60;;;;;;;;;;5093177;28;20020;-66
2023/06/22 04:29:05;;;;;;;20.88;17.15;;;;;;;;;;5093853;28;20023;-67
2023/06/22 04:31:31;;;;;;;20.33;17.40;;;;;;;;;;5093293;28;20390;-66
2023/06/22 04:33:57;;;;;;;24.25;17.25;;;;;;;;;;5084227;28;20020;-66
2023/06/22 04:36:23;;;;;;;22.10;19.80;;;;;;;;;;5093515;28;20051;-66
2023/06/22 04:38:52;;;;;;;22.88;18.20;;;;;;;;;;5094010;28;20356;-66
2023/06/22 04:41:23;;;;;;;21.70;18.45;;;;;;;;;;5088935;28;20020;-66
2023/06/22 04:43:53;;;;;;;18.80;16.80;;;;;;;;;;5093969;28;20024;-66
2023/06/22 04:46:18;;;;;;;20.23;15.98;;;;;;;;;;5079903;28;20481;-67
2023/06/22 04:48:44;;;;;;;19.42;15.65;;;;;;;;;;5093467;28;20052;-67
2023/06/22 04:51:10;;;;;;;17.53;15.80;;;;;;;;;;5092752;28;20024;-67
2023/06/22 04:53:35;;;;;;;18.70;16.55;;;;;;;;;;5093962;28;20278;-67
2023/06/22 04:56:04;;;;;;;30.27;16.05;;;;;;;;;;5093356;28;20024;-66
2023/06/22 04:58:32;;;;;;;22.42;16.42;;;;;;;;;;5093648;28;20098;-66
2023/06/22 05:00:57;;;;;;;23.15;18.67;;;;;;;;;;5079942;28;20072;-66
2023/06/22 05:03:25;;;;;;;21.02;18.48;;;;;;;;;;5093375;28;20452;-65
2023/06/22 05:05:50;;;;;;;21.38;19.23;;;;;;;;;;5093014;28;20475;-66
2023/06/22 05:08:17;;;;;;;25.63;20.95;;;;;;;;;;5092950;28;20036;-66
2023/06/22 05:10:43;;;;;;;30.58;24.52;;;;;;;;;;5092857;28;20024;-66
2023/06/22 05:13:08;;;;;;;31.73;24.27;;;;;;;;;;5092414;28;20040;-66
2023/06/22 05:15:38;;;;;;;24.93;22.40;;;;;;;;;;5087210;28;20056;-65
2023/06/22 05:18:05;;;;;;;26.15;23.35;;;;;;;;;;5088569;28;20315;-66
2023/06/22 05:20:30;;;;;;;26.17;22.58;;;;;;;;;;5092758;28;20036;-65
2023/06/22 05:22:55;;;;;;;27.38;24.58;;;;;;;;;;5092392;28;20432;-66
2023/06/22 05:25:20;;;;;;;28.83;24.83;;;;;;;;;;5091531;28;20027;-66
2023/06/22 05:27:46;;;;;;;26.90;23.80;;;;;;;;;;5092326;28;20273;-65
2023/06/22 05:30:11;;;;;;;27.08;24.40;;;;;;;;;;5090253;28;20330;-65
2023/06/22 05:32:36;;;;;;;31.48;26.20;;;;;;;;;;5092549;28;20032;-65
2023/06/22 05:35:02;;;;;;;28.40;25.40;;;;;;;;;;5092492;28;20481;-65
2023/06/22 05:37:28;;;;;;;35.28;27.33;;;;;;;;;;5092144;28;20080;-65
2023/06/22 05:39:55;;;;;;;30.05;24.83;;;;;;;;;;5092177;28;20111;-65
2023/06/22 05:42:20;;;;;;;28.70;23.73;;;;;;;;;;5087966;28;20035;-64
2023/06/22 05:44:46;;;;;;;28.65;25.58;;;;;;;;;;5091163;28;20031;-65
2023/06/22 05:47:11;;;;;;;29.83;26.65;;;;;;;;;;5091939;28;20028;-66
2023/06/22 05:49:37;;;;;;;30.00;27.00;;;;;;;;;;5091653;28;20031;-64
2023/06/22 05:52:02;;;;;;;31.35;28.20;;;;;;;;;;5092375;28;20266;-64
2023/06/22 05:54:28;;;;;;;31.33;26.90;;;;;;;;;;5091671;28;20474;-64
2023/06/22 05:56:53;;;;;;;32.25;28.85;;;;;;;;;;5092516;28;20053;-65
2023/06/22 05:59:18;;;;;;;31.83;28.65;;;;;;;;;;5091895;28;20382;-65
2023/06/22 06:01:44;;;;;;;33.22;29.92;;;;;;;;;;5092112;28;20034;-66
2023/06/22 06:04:09;;;;;;;41.78;33.35;;;;;;;;;;5091825;28;20480;-64
2023/06/22 06:06:34;;;;;;;49.20;37.93;;;;;;;;;;5091612;28;20024;-67
2023/06/22 06:09:00;;;;;;;56.58;44.17;;;;;;;;;;5078750;28;20697;-66
2023/06/22 06:11:25;;;;;;;61.95;48.17;;;;;;;;;;5092169;28;20031;-67
2023/06/22 06:13:51;;;;;;;52.17;46.55;;;;;;;;;;5091742;28;20020;-67
2023/06/22 06:16:16;;;;;;;56.08;46.75;;;;;;;;;;5091417;28;20028;-67
2023/06/22 06:18:41;;;;;;;52.65;47.17;;;;;;;;;;5091299;28;20028;-67
2023/06/22 06:21:06;;;;;;;50.42;44.60;;;;;;;;;;5091369;28;20032;-66
2023/06/22 06:23:32;;;;;;;49.47;44.37;;;;;;;;;;5086936;28;20471;-67
2023/06/22 06:25:57;;;;;;;52.47;46.17;;;;;;;;;;5091945;28;20288;-66
2023/06/22 06:28:24;;;;;;;54.65;47.17;;;;;;;;;;5091291;28;20361;-67
2023/06/22 06:30:51;;;;;;;53.08;47.33;;;;;;;;;;5092381;28;20020;-68
2023/06/22 06:33:17;;;;;;;54.90;47.70;;;;;;;;;;5092028;28;20085;-68
2023/06/22 06:35:42;;;;;;;52.83;47.47;;;;;;;;;;5092128;28;20036;-67
2023/06/22 06:38:07;;;;;;;52.87;47.13;;;;;;;;;;5091417;28;20024;-66
2023/06/22 06:40:32;;;;;;;53.90;47.90;;;;;;;;;;5089402;28;20285;-66
2023/06/22 06:42:58;;;;;;;51.85;46.63;;;;;;;;;;5080189;28;20274;-65
2023/06/22 06:45:23;;;;;;;55.40;46.23;;;;;;;;;;5082209;28;20372;-67
2023/06/22 06:47:50;;;;;;;53.78;48.08;;;;;;;;;;5091798;28;20339;-65
2023/06/22 06:50:15;;;;;;;55.97;50.05;;;;;;;;;;5091602;28;20020;-66
2023/06/22 06:52:41;;;;;;;54.20;48.95;;;;;;;;;;5091712;28;20012;-66
2023/06/22 06:55:13;;;;;;;56.03;50.22;;;;;;;;;;5091978;28;20430;-66
2023/06/22 06:57:39;;;;;;;56.85;50.95;;;;;;;;;;5090194;28;20088;-66
2023/06/22 07:00:11;;;;;;;63.85;57.53;;;;;;;;;;5091382;28;20482;-66
2023/06/22 07:02:37;;;;;;;58.75;52.90;;;;;;;;;;5090918;28;20589;-66
2023/06/22 07:05:04;;;;;;;55.83;50.05;;;;;;;;;;5090805;28;20051;-65
2023/06/22 07:07:29;;;;;;;60.60;54.47;;;;;;;;;;5089987;28;20467;-66
2023/06/22 07:09:54;;;;;;;61.35;55.15;;;;;;;;;;5091340;28;20027;-66
2023/06/22 07:12:20;;;;;;;58.10;52.23;;;;;;;;;;5091138;28;20032;-66
2023/06/22 07:14:45;;;;;;;60.72;54.17;;;;;;;;;;5091385;28;20274;-66
2023/06/22 07:17:10;;;;;;;54.28;48.40;;;;;;;;;;5091610;28;20020;-68
2023/06/22 07:19:35;;;;;;;54.83;48.30;;;;;;;;;;5091537;28;20104;-67
2023/06/22 07:22:01;;;;;;;55.00;49.38;;;;;;;;;;5091573;28;20283;-68
2023/06/22 07:24:27;;;;;;;51.55;46.45;;;;;;;;;;5091132;28;20413;-66
2023/06/22 07:26:52;;;;;;;49.22;43.50;;;;;;;;;;5082903;28;20413;-67
2023/06/22 07:29:17;;;;;;;46.25;41.70;;;;;;;;;;5090666;28;20123;-67
2023/06/22 07:31:43;;;;;;;47.28;42.72;;;;;;;;;;5085521;28;20119;-67
2023/06/22 07:34:08;;;;;;;47.00;42.58;;;;;;;;;;5090694;28;20035;-67
2023/06/22 07:36:35;;;;;;;48.22;43.42;;;;;;;;;;5093430;28;20047;-67
2023/06/22 07:39:00;;;;;;;48.63;43.47;;;;;;;;;;5094038;28;20558;-67
2023/06/22 07:41:26;;;;;;;47.72;43.10;;;;;;;;;;5089191;28;20037;-67
2023/06/22 07:43:51;;;;;;;50.50;45.50;;;;;;;;;;5088672;28;20423;-66
2023/06/22 07:46:16;;;;;;;46.20;41.22;;;;;;;;;;5094169;28;20419;-66
2023/06/22 07:48:43;;;;;;;55.42;49.83;;;;;;;;;;5094549;28;20419;-66
2023/06/22 07:51:09;;;;;;;47.83;43.10;;;;;;;;;;5094238;28;20032;-66
2023/06/22 07:53:35;;;;;;;48.40;43.40;;;;;;;;;;5094172;28;20073;-66
2023/06/22 07:56:01;;;;;;;47.00;42.42;;;;;;;;;;5094404;28;20028;-66
2023/06/22 07:58:26;;;;;;;38.25;34.67;;;;;;;;;;5094669;28;20079;-65
2023/06/22 08:00:51;;;;;;;39.67;35.65;;;;;;;;;;5090383;28;20033;-65
2023/06/22 08:03:17;;;;;;;38.80;34.53;;;;;;;;;;5085973;28;20382;-65
2023/06/22 08:05:42;;;;;;;40.20;35.92;;;;;;;;;;5094761;28;20028;-65
2023/06/22 08:08:07;;;;;;;35.63;32.10;;;;;;;;;;5089492;28;20020;-65
2023/06/22 08:10:32;;;;;;;35.42;31.90;;;;;;;;;;5093708;28;20270;-66
2023/06/22 08:12:58;;;;;;;35.47;31.65;;;;;;;;;;5094358;28;20713;-65
2023/06/22 08:15:23;;;;;;;40.83;35.40;;;;;;;;;;5093974;28;20097;-65
2023/06/22 08:17:49;;;;;;;36.35;32.30;;;;;;;;;;5094243;28;20020;-65
2023/06/22 08:20:14;;;;;;;37.93;32.83;;;;;;;;;;5093499;28;20020;-65
2023/06/22 08:22:40;;;;;;;38.03;33.50;;;;;;;;;;5094202;28;20293;-65
2023/06/22 08:25:06;;;;;;;38.45;34.65;;;;;;;;;;5093538;28;20024;-65
2023/06/22 08:27:32;;;;;;;37.72;33.95;;;;;;;;;;5092980;28;20024;-66
2023/06/22 08:29:58;;;;;;;37.40;33.70;;;;;;;;;;5093104;28;20027;-66
2023/06/22 08:32:24;;;;;;;35.25;31.45;;;;;;;;;;5093995;28;20057;-66
2023/06/22 08:34:49;;;;;;;34.47;31.02;;;;;;;;;;5093083;28;20016;-65
2023/06/22 08:37:14;;;;;;;33.67;29.85;;;;;;;;;;5094074;28;20513;-65
2023/06/22 08:39:40;;;;;;;34.73;31.37;;;;;;;;;;5090245;28;20024;-66
2023/06/22 08:42:05;;;;;;;33.45;29.88;;;;;;;;;;5074823;28;20308;-66
2023/06/22 08:44:30;;;;;;;40.28;27.38;;;;;;;;;;5090508;28;20026;-65
2023/06/22 08:46:56;;;;;;;33.10;29.90;;;;;;;;;;5092494;28;20055;-66
2023/06/22 08:49:22;;;;;;;31.55;27.80;;;;;;;;;;5092841;28;20032;-66
2023/06/22 08:51:49;;;;;;;34.95;27.08;;;;;;;;;;5092998;28;20027;-67
2023/06/22 08:54:14;;;;;;;31.25;27.95;;;;;;;;;;5092314;28;20421;-66
2023/06/22 08:56:39;;;;;;;32.27;28.47;;;;;;;;;;5092867;28;20024;-66
2023/06/22 08:59:07;;;;;;;32.97;27.98;;;;;;;;;;5092908;28;20629;-66
2023/06/22 09:01:33;;;;;;;29.33;26.33;;;;;;;;;;5083729;28;20028;-66
2023/06/22 09:03:59;;;;;;;29.85;24.85;;;;;;;;;;5089311;28;20077;-67
2023/06/22 09:06:24;;;;;;;31.00;26.13;;;;;;;;;;5092708;28;20047;-66
2023/06/22 09:08:50;;;;;;;31.63;26.10;;;;;;;;;;5074429;28;20055;-66
2023/06/22 09:11:15;;;;;;;34.35;30.52;;;;;;;;;;5091100;28;20024;-66
2023/06/22 09:13:41;;;;;;;30.70;26.40;;;;;;;;;;5091573;28;20028;-66
2023/06/22 09:16:06;;;;;;;30.27;26.20;;;;;;;;;;5091164;28;20032;-66
2023/06/22 09:18:31;;;;;;;31.73;27.13;;;;;;;;;;5092296;28;20505;-66
2023/06/22 09:20:57;;;;;;;28.70;25.75;;;;;;;;;;5092015;28;20394;-66
2023/06/22 09:23:22;;;;;;;28.75;25.92;;;;;;;;;;5092677;28;20401;-67
2023/06/22 09:25:47;;;;;;;31.15;28.10;;;;;;;;;;5092530;28;20046;-67
2023/06/22 09:28:13;;;;;;;31.33;27.58;;;;;;;;;;5092736;28;20032;-67
2023/06/22 09:30:39;;;;;;;27.98;25.05;;;;;;;;;;5093003;28;20099;-67
2023/06/22 09:33:04;;;;;;;30.77;26.42;;;;;;;;;;5092241;28;20107;-67
2023/06/22 09:35:29;;;;;;;32.00;25.60;;;;;;;;;;5092899;28;20016;-66
2023/06/22 09:37:54;;;;;;;26.40;23.40;;;;;;;;;;5093151;28;20712;-65
2023/06/22 09:40:20;;;;;;;26.00;22.95;;;;;;;;;;5092523;28;20266;-66
2023/06/22 09:42:45;;;;;;;26.17;23.25;;;;;;;;;;5093167;28;20081;-66
2023/06/22 09:45:10;;;;;;;26.77;23.20;;;;;;;;;;5092226;28;20027;-66
2023/06/22 09:47:36;;;;;;;26.87;24.07;;;;;;;;;;5091935;28;20397;-67
2023/06/22 09:50:01;;;;;;;30.27;25.58;;;;;;;;;;5092474;28;20278;-67
2023/06/22 09:52:26;;;;;;;26.88;24.17;;;;;;;;;;5091909;28;20039;-67
2023/06/22 09:54:51;;;;;;;28.70;25.75;;;;;;;;;;5092116;28;20479;-67
2023/06/22 09:57:17;;;;;;;31.30;25.97;;;;;;;;;;5091896;28;20032;-67
2023/06/22 09:59:42;;;;;;;27.80;23.17;;;;;;;;;;5090822;28;20847;-67
2023/06/22 10:02:08;;;;;;;25.88;23.27;;;;;;;;;;5091366;28;20820;-67
2023/06/22 10:04:34;;;;;;;27.55;24.90;;;;;;;;;;5091544;28;20024;-67
2023/06/22 10:07:00;;;;;;;29.50;26.13;;;;;;;;;;5090185;28;20016;-67
2023/06/22 10:09:25;;;;;;;29.65;25.95;;;;;;;;;;5080841;28;20497;-67
2023/06/22 10:11:50;;;;;;;29.45;26.38;;;;;;;;;;5080350;28;20020;-67
2023/06/22 10:14:16;;;;;;;32.83;25.27;;;;;;;;;;5091277;28;20141;-67
2023/06/22 10:16:42;;;;;;;28.45;25.48;;;;;;;;;;5091512;28;20281;-66
2023/06/22 10:19:07;;;;;;;37.08;28.85;;;;;;;;;;5091132;28;20035;-66
2023/06/22 10:21:33;;;;;;;33.42;27.38;;;;;;;;;;5091550;28;20066;-67
2023/06/22 10:24:01;;;;;;;32.42;29.30;;;;;;;;;;5092124;28;20471;-67
2023/06/22 10:26:28;;;;;;;32.63;29.48;;;;;;;;;;5091880;28;20036;-67
2023/06/22 10:28:54;;;;;;;37.60;33.83;;;;;;;;;;5090947;28;20024;-67
2023/06/22 10:31:19;;;;;;;48.70;34.23;;;;;;;;;;5091815;28;20030;-67
2023/06/22 10:33:45;;;;;;;41.87;37.23;;;;;;;;;;5090676;28;20274;-65
2023/06/22 10:36:10;;;;;;;40.28;36.28;;;;;;;;;;5090713;28;20266;-65
2023/06/22 10:38:36;;;;;;;40.40;35.95;;;;;;;;;;5091463;28;20028;-65
2023/06/22 10:41:01;;;;;;;42.97;38.17;;;;;;;;;;5090810;28;20032;-66
2023/06/22 10:43:26;;;;;;;42.13;37.78;;;;;;;;;;5072179;28;20310;-66
2023/06/22 10:45:51;;;;;;;43.33;38.70;;;;;;;;;;5090818;28;20035;-66
2023/06/22 10:48:17;;;;;;;44.73;40.10;;;;;;;;;;5092315;28;20281;-67
2023/06/22 10:50:42;;;;;;;41.03;36.63;;;;;;;;;;5091751;28;20285;-67
2023/06/22 10:53:07;;;;;;;44.50;39.97;;;;;;;;;;5091818;28;20443;-68
2023/06/22 10:55:32;;;;;;;45.93;41.37;;;;;;;;;;5091139;28;20321;-68
2023/06/22 10:57:58;;;;;;;52.90;47.58;;;;;;;;;;5091656;28;20285;-68
2023/06/22 11:00:23;;;;;;;58.63;52.67;;;;;;;;;;5090694;28;20028;-68
2023/06/22 11:02:48;;;;;;;49.72;44.72;;;;;;;;;;5091421;28;20783;-67
2023/06/22 11:05:13;;;;;;;55.35;49.38;;;;;;;;;;5090969;28;20467;-67
2023/06/22 11:07:46;;;;;;;51.63;46.47;;;;;;;;;;5084257;28;20466;-67
2023/06/22 11:10:12;;;;;;;53.17;47.85;;;;;;;;;;5084393;28;20032;-67
2023/06/22 11:12:37;;;;;;;58.90;52.67;;;;;;;;;;5091579;28;20028;-66
2023/06/22 11:15:02;;;;;;;56.03;50.28;;;;;;;;;;5091047;28;20028;-66
2023/06/22 11:17:28;;;;;;;50.42;45.33;;;;;;;;;;5091641;28;20111;-67
2023/06/22 11:19:53;;;;;;;53.73;48.20;;;;;;;;;;5090312;28;20435;-68
2023/06/22 11:22:18;;;;;;;50.95;45.42;;;;;;;;;;5090872;28;20307;-66
2023/06/22 11:24:43;;;;;;;46.65;41.90;;;;;;;;;;5089859;28;20033;-67
2023/06/22 11:27:09;;;;;;;48.23;43.17;;;;;;;;;;5084867;28;20039;-69
2023/06/22 11:29:34;;;;;;;46.25;41.55;;;;;;;;;;5090891;28;20270;-67
2023/06/22 11:31:59;;;;;;;49.83;44.70;;;;;;;;;;5083277;28;20032;-67
2023/06/22 11:34:24;;;;;;;47.00;42.43;;;;;;;;;;5090443;28;20728;-66
2023/06/22 11:36:50;;;;;;;54.85;44.67;;;;;;;;;;5090840;28;20346;-67
2023/06/22 11:39:15;;;;;;;50.30;45.13;;;;;;;;;;5090759;28;20028;-66
2023/06/22 11:41:41;;;;;;;48.72;43.88;;;;;;;;;;5082819;28;20032;-67
2023/06/22 11:44:06;;;;;;;47.88;43.47;;;;;;;;;;5089909;28;20044;-66
2023/06/22 11:46:32;;;;;;;50.20;44.60;;;;;;;;;;5090523;28;20028;-66
2023/06/22 11:48:57;;;;;;;48.30;43.13;;;;;;;;;;5091036;28;20278;-68
2023/06/22 11:51:22;;;;;;;51.93;46.87;;;;;;;;;;5090803;28;20069;-69
2023/06/22 11:53:47;;;;;;;48.58;43.65;;;;;;;;;;5090294;28;20788;-67
2023/06/22 11:56:13;;;;;;;47.58;42.88;;;;;;;;;;5089885;28;20080;-67
2023/06/22 11:58:38;;;;;;;48.03;43.43;;;;;;;;;;5090722;28;20024;-66
2023/06/22 12:01:03;;;;;;;42.93;38.93;;;;;;;;;;5090444;28;20294;-68
2023/06/22 12:03:29;;;;;;;47.28;42.42;;;;;;;;;;5090372;28;20279;-67
2023/06/22 12:05:55;;;;;;;49.72;44.75;;;;;;;;;;5090047;28;20043;-66
2023/06/22 12:08:20;;;;;;;48.33;43.92;;;;;;;;;;5077238;28;20447;-66
2023/06/22 12:10:46;;;;;;;48.53;43.45;;;;;;;;;;5085871;28;20021;-66
2023/06/22 12:13:11;;;;;;;48.67;43.53;;;;;;;;;;5090706;28;20376;-66
2023/06/22 12:15:36;;;;;;;50.80;45.53;;;;;;;;;;5089359;28;20545;-66
2023/06/22 12:18:02;;;;;;;49.00;44.10;;;;;;;;;;5090764;28;20281;-66
2023/06/22 12:20:27;;;;;;;50.40;45.55;;;;;;;;;;5087670;28;20289;-65
2023/06/22 12:22:55;;;;;;;53.17;47.30;;;;;;;;;;5093134;28;20024;-66
2023/06/22 12:25:20;;;;;;;51.22;46.42;;;;;;;;;;5092761;28;20098;-66
2023/06/22 12:27:45;;;;;;;53.22;48.10;;;;;;;;;;5092538;28;20028;-66
2023/06/22 12:30:11;;;;;;;53.90;48.58;;;;;;;;;;5092811;28;20433;-65
2023/06/22 12:32:36;;;;;;;53.72;48.15;;;;;;;;;;5093845;28;20028;-67
2023/06/22 12:35:01;;;;;;;56.90;51.10;;;;;;;;;;5092194;28;20051;-65
2023/06/22 12:37:27;;;;;;;59.53;53.38;;;;;;;;;;5092897;28;20266;-67
2023/06/22 12:39:53;;;;;;;59.45;53.92;;;;;;;;;;5093772;28;20032;-64
2023/06/22 12:42:18;;;;;;;56.75;50.75;;;;;;;;;;5093073;28;20028;-66
2023/06/22 12:44:44;;;;;;;57.53;51.97;;;;;;;;;;5093821;28;20482;-66
2023/06/22 12:47:10;;;;;;;62.30;56.13;;;;;;;;;;5093915;28;20383;-66
2023/06/22 12:49:35;;;;;;;59.70;53.88;;;;;;;;;;5091530;28;20035;-66
2023/06/22 12:52:01;;;;;;;63.53;57.20;;;;;;;;;;5093796;28;20027;-66
2023/06/22 12:54:27;;;;;;;63.60;57.50;;;;;;;;;;5092311;28;20045;-66
2023/06/22 12:56:52;;;;;;;63.90;57.38;;;;;;;;;;5090913;28;20111;-66
2023/06/22 12:59:18;;;;;;;63.72;57.25;;;;;;;;;;5068208;28;20158;-68
2023/06/22 13:01:46;;;;;;;62.88;56.17;;;;;;;;;;5093258;28;20036;-66
2023/06/22 13:04:14;;;;;;;61.20;54.97;;;;;;;;;;5072618;28;20482;-66
2023/06/22 13:06:39;;;;;;;60.15;54.15;;;;;;;;;;5093379;28;20612;-66
2023/06/22 13:09:05;;;;;;;60.47;54.88;;;;;;;;;;5093100;28;20139;-66
2023/06/22 13:11:30;;;;;;;57.30;51.67;;;;;;;;;;5093321;28;20097;-65
2023/06/22 13:13:55;;;;;;;57.00;51.10;;;;;;;;;;5093217;28;20028;-65
2023/06/22 13:16:20;;;;;;;55.00;49.77;;;;;;;;;;5089099;28;20020;-68
2023/06/22 13:18:46;;;;;;;58.47;52.53;;;;;;;;;;5084955;28;20327;-65
2023/06/22 13:21:11;;;;;;;54.53;49.03;;;;;;;;;;5092625;28;20294;-65
2023/06/22 13:23:36;;;;;;;55.93;50.67;;;;;;;;;;5092985;28;20749;-66
2023/06/22 13:26:02;;;;;;;52.17;47.37;;;;;;;;;;5092497;28;20731;-64
2023/06/22 13:28:29;;;;;;;52.70;47.47;;;;;;;;;;5092719;28;20270;-65
2023/06/22 13:30:55;;;;;;;50.00;45.17;;;;;;;;;;5092556;28;20471;-66
2023/06/22 13:33:20;;;;;;;46.75;42.35;;;;;;;;;;5091804;28;20027;-63
2023/06/22 13:35:45;;;;;;;47.30;42.47;;;;;;;;;;5092127;28;20020;-65
2023/06/22 13:38:10;;;;;;;46.67;42.13;;;;;;;;;;5084775;28;20268;-65
2023/06/22 13:40:37;;;;;;;46.00;41.38;;;;;;;;;;5092702;28;20330;-70
2023/06/22 13:43:03;;;;;;;49.75;40.50;;;;;;;;;;5092817;28;20059;-64
2023/06/22 13:45:28;;;;;;;44.38;39.92;;;;;;;;;;5092767;28;20059;-65
2023/06/22 13:47:53;;;;;;;45.05;39.95;;;;;;;;;;5092672;28;20031;-66
2023/06/22 13:50:18;;;;;;;41.57;37.53;;;;;;;;;;5092555;28;20051;-63
2023/06/22 13:52:44;;;;;;;43.80;39.43;;;;;;;;;;5092313;28;20285;-63
2023/06/22 13:55:09;;;;;;;44.47;39.78;;;;;;;;;;5092185;28;20270;-66
2023/06/22 13:57:35;;;;;;;41.70;37.80;;;;;;;;;;5092242;28;20024;-64
2023/06/22 14:00:00;;;;;;;45.53;41.00;;;;;;;;;;5084317;28;20028;-64
2023/06/22 14:02:26;;;;;;;42.50;38.38;;;;;;;;;;5091997;28;20035;-64
2023/06/22 14:04:51;;;;;;;50.13;45.15;;;;;;;;;;5092776;28;20028;-65
2023/06/22 14:07:16;;;;;;;43.25;38.78;;;;;;;;;;5088153;28;20020;-64
2023/06/22 14:09:42;;;;;;;44.85;39.97;;;;;;;;;;5082976;28;20027;-64
2023/06/22 14:12:07;;;;;;;48.25;39.95;;;;;;;;;;5091086;28;20052;-65
2023/06/22 14:14:32;;;;;;;43.60;39.30;;;;;;;;;;5092084;28;20069;-64